createdAt,value
2019-02-25T00:01:05.677Z,11.70
2019-02-25T00:03:56.486Z,10.82
2019-02-25T00:06:29.698Z,10.25
2019-02-25T00:09:01.704Z,9.73
2019-02-25T00:11:30.458Z,13.20
2019-02-25T00:14:01.353Z,10.78
2019-02-25T00:16:32.255Z,11.38
2019-02-25T00:19:07.814Z,12.05
2019-02-25T00:21:39.609Z,11.03
2019-02-25T00:24:11.390Z,9.68
2019-02-25T00:26:40.627Z,12.47
2019-02-25T00:29:12.887Z,10.98
2019-02-25T00:31:47.842Z,9.45
2019-02-25T00:34:20.041Z,10.60
2019-02-25T00:36:52.275Z,10.03
2019-02-25T00:39:28.953Z,10.43
2019-02-25T00:41:58.640Z,9.58
2019-02-25T00:44:30.660Z,9.90
2019-02-25T00:47:04.621Z,10.80
2019-02-25T00:49:38.036Z,10.72
2019-02-25T00:54:42.813Z,10.45
2019-02-25T00:57:15.061Z,10.43
2019-02-25T00:59:44.166Z,10.65
2019-02-25T01:02:12.904Z,10.63
2019-02-25T01:04:43.902Z,10.03
2019-02-25T01:07:18.934Z,9.80
2019-02-25T01:09:49.687Z,10.43
2019-02-25T01:12:19.034Z,10.25
2019-02-25T01:14:48.128Z,9.35
2019-02-25T01:17:17.727Z,10.13
2019-02-25T01:19:51.934Z,10.03
2019-02-25T01:22:23.005Z,9.40
2019-02-25T01:24:53.071Z,13.60
2019-02-25T01:27:22.315Z,10.43
2019-02-25T01:29:51.761Z,10.45
2019-02-25T01:32:23.842Z,10.68
2019-02-25T01:34:56.179Z,10.40
2019-02-25T01:37:32.648Z,10.40
2019-02-25T01:40:03.230Z,9.33
2019-02-25T01:42:37.302Z,10.75
2019-02-25T01:45:08.788Z,10.35
2019-02-25T01:47:40.925Z,9.33
2019-02-25T01:50:14.877Z,9.70
2019-02-25T01:52:47.183Z,10.05
2019-02-25T01:55:16.092Z,10.15
2019-02-25T01:57:46.252Z,10.70
2019-02-25T02:00:17.826Z,10.70
2019-02-25T02:02:46.754Z,10.63
2019-02-25T02:05:15.834Z,10.65
2019-02-25T02:07:47.165Z,12.18
2019-02-25T02:10:17.419Z,12.70
2019-02-25T02:12:49.688Z,12.90
2019-02-25T02:15:20.386Z,14.43
2019-02-25T02:17:50.646Z,16.67
2019-02-25T02:20:21.632Z,16.12
2019-02-25T02:22:50.749Z,14.07
2019-02-25T02:25:24.598Z,14.03
2019-02-25T02:27:57.853Z,11.10
2019-02-25T02:30:32.925Z,10.38
2019-02-25T02:33:01.642Z,11.75
2019-02-25T02:35:35.530Z,12.43
2019-02-25T02:38:06.448Z,11.45
2019-02-25T02:40:40.452Z,10.60
2019-02-25T02:43:13.580Z,10.43
2019-02-25T02:45:55.427Z,10.25
2019-02-25T02:48:40.470Z,9.75
2019-02-25T02:51:15.412Z,10.00
2019-02-25T02:53:50.455Z,11.08
2019-02-25T02:56:21.195Z,9.83
2019-02-25T02:58:56.451Z,10.08
2019-02-25T03:01:29.664Z,11.35
2019-02-25T03:04:02.693Z,10.82
2019-02-25T03:06:37.649Z,11.28
2019-02-25T03:09:10.559Z,11.33
2019-02-25T03:11:41.621Z,10.90
2019-02-25T03:14:14.094Z,10.03
2019-02-25T03:16:47.558Z,9.93
2019-02-25T03:19:21.742Z,10.78
2019-02-25T03:21:53.656Z,10.98
2019-02-25T03:24:25.411Z,11.38
2019-02-25T03:26:57.914Z,9.93
2019-02-25T03:29:35.155Z,9.97
2019-02-25T03:32:08.819Z,10.68
2019-02-25T03:34:39.348Z,9.35
2019-02-25T03:37:29.053Z,9.58
2019-02-25T03:40:01.631Z,10.68
2019-02-25T03:42:32.833Z,10.03
2019-02-25T03:45:06.091Z,9.48
2019-02-25T03:47:35.656Z,9.80
2019-02-25T03:50:10.795Z,10.35
2019-02-25T03:52:42.097Z,10.28
2019-02-25T03:55:18.183Z,10.10
2019-02-25T03:57:50.358Z,10.78
2019-02-25T04:00:22.309Z,10.93
2019-02-25T04:02:56.012Z,9.83
2019-02-25T04:05:30.194Z,10.35
2019-02-25T04:08:02.749Z,10.58
2019-02-25T04:10:35.290Z,11.07
2019-02-25T04:13:08.069Z,11.00
2019-02-25T04:15:42.599Z,8.45
2019-02-25T04:18:14.724Z,10.63
2019-02-25T04:20:49.173Z,10.38
2019-02-25T04:23:20.223Z,12.60
2019-02-25T04:25:54.737Z,11.68
2019-02-25T04:28:27.328Z,12.33
2019-02-25T04:30:57.968Z,14.00
2019-02-25T04:33:27.883Z,13.10
2019-02-25T04:35:57.168Z,14.95
2019-02-25T04:38:33.612Z,11.43
2019-02-25T04:41:02.710Z,11.45
2019-02-25T04:43:34.801Z,13.10
2019-02-25T04:46:11.663Z,12.75
2019-02-25T04:48:43.870Z,11.30
2019-02-25T04:51:13.269Z,11.57
2019-02-25T04:53:47.826Z,12.30
2019-02-25T04:56:19.940Z,11.03
2019-02-25T04:58:54.079Z,14.58
2019-02-25T05:01:27.801Z,12.65
2019-02-25T05:04:06.017Z,13.28
2019-02-25T05:06:40.123Z,11.20
2019-02-25T05:09:12.029Z,11.88
2019-02-25T05:11:42.182Z,11.53
2019-02-25T05:14:16.958Z,11.15
2019-02-25T05:16:47.067Z,10.63
2019-02-25T05:19:17.698Z,11.08
2019-02-25T05:21:47.025Z,11.70
2019-02-25T05:24:18.021Z,10.80
2019-02-25T05:26:49.281Z,11.15
2019-02-25T05:29:18.627Z,10.93
2019-02-25T05:31:49.546Z,11.18
2019-02-25T05:34:19.084Z,12.25
2019-02-25T05:36:52.540Z,11.57
2019-02-25T05:41:51.980Z,11.28
2019-02-25T05:44:25.489Z,11.12
2019-02-25T05:46:59.181Z,12.20
2019-02-25T05:49:29.665Z,12.28
2019-02-25T05:51:59.968Z,11.55
2019-02-25T05:54:31.798Z,11.38
2019-02-25T05:57:02.796Z,11.68
2019-02-25T05:59:34.581Z,11.08
2019-02-25T06:02:05.434Z,11.00
2019-02-25T06:04:37.030Z,11.95
2019-02-25T06:07:10.861Z,12.55
2019-02-25T06:09:42.879Z,12.10
2019-02-25T06:12:13.630Z,12.55
2019-02-25T06:14:46.346Z,12.78
2019-02-25T06:17:17.147Z,12.90
2019-02-25T06:19:51.713Z,13.93
2019-02-25T06:22:23.554Z,11.88
2019-02-25T06:24:57.164Z,13.48
2019-02-25T06:27:31.075Z,12.68
2019-02-25T06:30:01.160Z,12.85
2019-02-25T06:32:33.342Z,13.05
2019-02-25T06:35:05.563Z,11.80
2019-02-25T06:37:37.569Z,12.40
2019-02-25T06:40:08.856Z,12.03
2019-02-25T06:42:39.449Z,11.55
2019-02-25T06:45:14.876Z,11.63
2019-02-25T06:47:46.039Z,12.25
2019-02-25T06:50:18.016Z,11.50
2019-02-25T06:52:51.544Z,11.18
2019-02-25T06:55:22.220Z,12.30
2019-02-25T06:57:54.112Z,11.00
2019-02-25T07:00:25.512Z,12.50
2019-02-25T07:03:00.237Z,11.63
2019-02-25T07:05:41.846Z,11.63
2019-02-25T07:08:32.971Z,10.95
2019-02-25T07:11:25.791Z,10.48
2019-02-25T07:14:13.870Z,10.90
2019-02-25T07:17:00.529Z,10.98
2019-02-25T07:19:38.399Z,11.40
2019-02-25T07:22:16.436Z,12.90
2019-02-25T07:25:07.322Z,12.85
2019-02-25T07:28:11.417Z,11.90
2019-02-25T07:31:03.899Z,11.57
2019-02-25T07:33:53.366Z,11.10
2019-02-25T07:36:39.811Z,11.25
2019-02-25T07:39:35.551Z,11.28
2019-02-25T07:42:11.774Z,12.10
2019-02-25T07:45:06.549Z,11.48
2019-02-25T07:47:48.746Z,10.72
2019-02-25T07:50:28.185Z,10.78
2019-02-25T07:53:17.682Z,11.73
2019-02-25T07:56:05.963Z,11.18
2019-02-25T07:59:07.381Z,10.43
2019-02-25T08:02:04.052Z,10.32
2019-02-25T08:04:44.990Z,11.33
2019-02-25T08:07:45.107Z,10.53
2019-02-25T08:10:37.385Z,11.55
2019-02-25T08:13:26.944Z,11.80
2019-02-25T08:16:34.601Z,14.55
2019-02-25T08:19:15.667Z,11.00
2019-02-25T08:22:04.028Z,11.78
2019-02-25T08:25:03.628Z,11.03
2019-02-25T08:28:01.622Z,11.43
2019-02-25T08:30:51.875Z,10.90
2019-02-25T08:33:42.780Z,10.65
2019-02-25T08:37:06.604Z,10.72
2019-02-25T08:39:59.330Z,10.23
2019-02-25T08:42:35.085Z,10.38
2019-02-25T08:45:19.062Z,11.28
2019-02-25T08:47:59.199Z,11.08
2019-02-25T08:50:33.304Z,10.80
2019-02-25T08:53:03.315Z,10.70
2019-02-25T08:55:32.302Z,10.08
2019-02-25T08:58:00.869Z,10.10
2019-02-25T09:00:29.439Z,10.45
2019-02-25T09:02:58.341Z,10.65
2019-02-25T09:05:27.505Z,11.25
2019-02-25T09:07:57.684Z,10.25
2019-02-25T09:10:26.665Z,11.95
2019-02-25T09:12:57.392Z,10.58
2019-02-25T09:15:32.589Z,10.88
2019-02-25T09:18:02.373Z,11.22
2019-02-25T09:20:31.480Z,11.40
2019-02-25T09:23:06.022Z,10.75
2019-02-25T09:25:37.245Z,11.80
2019-02-25T09:28:07.376Z,11.50
2019-02-25T09:30:36.585Z,11.88
2019-02-25T09:33:11.131Z,10.85
2019-02-25T09:35:40.279Z,10.98
2019-02-25T09:38:14.568Z,11.12
2019-02-25T09:40:48.498Z,13.58
2019-02-25T09:43:18.623Z,13.08
2019-02-25T09:45:47.871Z,13.80
2019-02-25T09:48:18.350Z,12.03
2019-02-25T09:50:47.241Z,11.90
2019-02-25T09:53:17.807Z,10.13
2019-02-25T09:55:49.771Z,11.38
2019-02-25T09:58:18.629Z,10.58
2019-02-25T10:00:52.229Z,10.82
2019-02-25T10:03:21.131Z,9.80
2019-02-25T10:05:52.483Z,9.50
2019-02-25T10:08:22.902Z,10.23
2019-02-25T10:10:53.666Z,10.53
2019-02-25T10:13:25.763Z,10.28
2019-02-25T10:15:57.391Z,10.43
2019-02-25T10:18:26.539Z,9.83
2019-02-25T10:20:58.286Z,11.50
2019-02-25T10:23:30.669Z,11.12
2019-02-25T10:26:05.679Z,11.53
2019-02-25T10:28:34.775Z,11.18
2019-02-25T10:31:08.426Z,11.05
2019-02-25T10:36:08.663Z,10.58
2019-02-25T10:38:37.715Z,10.78
2019-02-25T10:41:06.662Z,10.63
2019-02-25T10:43:41.038Z,10.05
2019-02-25T10:46:13.419Z,10.55
2019-02-25T10:48:44.037Z,9.55
2019-02-25T10:51:17.764Z,9.85
2019-02-25T10:56:23.842Z,10.10
2019-02-25T10:58:59.642Z,10.40
2019-02-25T11:01:29.795Z,11.15
2019-02-25T11:03:58.328Z,11.60
2019-02-25T11:06:29.087Z,10.68
2019-02-25T11:09:06.888Z,10.03
2019-02-25T11:11:37.313Z,10.78
2019-02-25T11:14:09.210Z,10.30
2019-02-25T11:16:41.925Z,10.38
2019-02-25T11:21:44.377Z,11.63
2019-02-25T11:24:16.691Z,10.32
2019-02-25T11:26:49.038Z,10.10
2019-02-25T11:29:21.566Z,11.10
2019-02-25T11:31:53.133Z,11.05
2019-02-25T11:34:22.362Z,10.60
2019-02-25T11:36:55.505Z,10.63
2019-02-25T11:39:27.572Z,11.78
2019-02-25T11:41:57.566Z,11.00
2019-02-25T11:44:31.152Z,10.53
2019-02-25T11:47:04.677Z,10.35
2019-02-25T11:49:37.247Z,11.40
2019-02-25T11:52:07.877Z,10.65
2019-02-25T11:54:40.139Z,9.88
2019-02-25T11:57:10.801Z,10.48
2019-02-25T11:59:42.846Z,10.55
2019-02-25T12:02:11.587Z,10.30
2019-02-25T12:04:40.730Z,11.43
2019-02-25T12:07:13.236Z,10.90
2019-02-25T12:09:42.264Z,10.80
2019-02-25T12:12:12.757Z,10.03
2019-02-25T12:14:47.765Z,12.15
2019-02-25T12:17:18.733Z,9.65
2019-02-25T12:19:52.233Z,9.80
2019-02-25T12:22:24.596Z,9.90
2019-02-25T12:24:54.902Z,8.50
2019-02-25T12:27:24.611Z,8.75
2019-02-25T12:29:57.425Z,7.40
2019-02-25T12:32:26.337Z,6.17
2019-02-25T12:34:54.869Z,7.92
2019-02-25T12:37:25.598Z,6.75
2019-02-25T12:39:56.322Z,5.78
2019-02-25T12:42:27.400Z,5.47
2019-02-25T12:44:58.027Z,4.42
2019-02-25T12:47:27.609Z,3.20
2019-02-25T12:50:00.813Z,2.90
2019-02-25T12:52:31.051Z,4.92
2019-02-25T12:55:01.552Z,2.92
2019-02-25T12:57:30.270Z,2.55
2019-02-25T13:00:04.229Z,2.87
2019-02-25T13:02:34.793Z,2.62
2019-02-25T13:05:03.532Z,2.35
2019-02-25T13:07:36.955Z,2.55
2019-02-25T13:10:08.537Z,2.22
2019-02-25T13:12:39.046Z,1.52
2019-02-25T13:15:13.278Z,1.98
2019-02-25T13:17:43.808Z,1.80
2019-02-25T13:20:12.357Z,2.05
2019-02-25T13:22:43.283Z,1.92
2019-02-25T13:25:14.607Z,2.22
2019-02-25T13:27:45.399Z,2.95
2019-02-25T13:30:15.113Z,2.15
2019-02-25T13:32:45.462Z,2.10
2019-02-25T13:35:14.969Z,2.10
2019-02-25T13:37:48.498Z,2.08
2019-02-25T13:40:23.686Z,2.20
2019-02-25T13:42:54.133Z,2.65
2019-02-25T13:45:24.862Z,2.47
2019-02-25T13:47:57.028Z,3.58
2019-02-25T13:50:29.133Z,3.12
2019-02-25T13:53:03.841Z,2.92
2019-02-25T13:55:36.804Z,3.42
2019-02-25T13:58:14.601Z,3.63
2019-02-25T14:00:51.469Z,3.50
2019-02-25T14:03:21.656Z,3.12
2019-02-25T14:05:53.910Z,2.85
2019-02-25T14:08:24.009Z,3.27
2019-02-25T14:10:54.435Z,2.83
2019-02-25T14:13:23.155Z,3.30
2019-02-25T14:15:55.012Z,4.72
2019-02-25T14:18:26.633Z,4.92
2019-02-25T14:20:55.544Z,4.55
2019-02-25T14:23:30.782Z,4.60
2019-02-25T14:26:03.711Z,5.25
2019-02-25T14:28:34.719Z,4.40
2019-02-25T14:31:10.139Z,5.62
2019-02-25T14:33:40.036Z,5.50
2019-02-25T14:36:10.660Z,5.10
2019-02-25T14:38:41.583Z,4.97
2019-02-25T14:41:16.054Z,5.45
2019-02-25T14:43:49.188Z,5.83
2019-02-25T14:46:21.836Z,6.10
2019-02-25T14:48:48.879Z,6.72
2019-02-25T14:51:17.631Z,6.03
2019-02-25T14:53:52.735Z,5.72
2019-02-25T14:56:28.175Z,6.42
2019-02-25T14:59:00.607Z,6.22
2019-02-25T15:01:29.828Z,6.92
2019-02-25T15:04:04.315Z,7.30
2019-02-25T15:06:36.777Z,6.65
2019-02-25T15:09:09.822Z,6.65
2019-02-25T15:11:38.996Z,6.97
2019-02-25T15:14:12.853Z,7.35
2019-02-25T15:16:42.119Z,8.25
2019-02-25T15:19:13.339Z,7.37
2019-02-25T15:21:43.331Z,6.67
2019-02-25T15:24:16.563Z,6.87
2019-02-25T15:26:48.879Z,6.87
2019-02-25T15:29:22.335Z,6.90
2019-02-25T15:31:57.078Z,6.55
2019-02-25T15:34:28.524Z,7.05
2019-02-25T15:36:58.604Z,5.95
2019-02-25T15:39:28.137Z,6.30
2019-02-25T15:42:02.085Z,6.10
2019-02-25T15:44:30.658Z,6.17
2019-02-25T15:47:02.517Z,7.00
2019-02-25T15:49:34.683Z,6.17
2019-02-25T15:52:05.252Z,6.40
2019-02-25T15:54:39.376Z,5.97
2019-02-25T15:57:09.022Z,5.95
2019-02-25T15:59:45.058Z,5.50
2019-02-25T16:02:18.926Z,5.35
2019-02-25T16:04:56.418Z,5.92
2019-02-25T16:07:25.961Z,6.10
2019-02-25T16:10:03.319Z,7.10
2019-02-25T16:12:31.440Z,7.10
2019-02-25T16:15:01.411Z,7.78
2019-02-25T16:17:35.158Z,7.50
2019-02-25T16:20:07.541Z,7.60
2019-02-25T16:22:40.807Z,7.28
2019-02-25T16:25:14.402Z,7.95
2019-02-25T16:27:49.398Z,7.53
2019-02-25T16:30:19.101Z,6.60
2019-02-25T16:32:48.791Z,9.78
2019-02-25T16:35:20.942Z,10.93
2019-02-25T16:37:50.826Z,11.85
2019-02-25T16:40:26.417Z,10.08
2019-02-25T16:45:34.843Z,11.08
2019-02-25T16:48:04.838Z,9.08
2019-02-25T16:50:35.293Z,7.67
2019-02-25T16:53:10.271Z,6.75
2019-02-25T16:58:13.225Z,9.88
2019-02-25T17:00:41.729Z,10.25
2019-02-25T17:03:13.770Z,9.58
2019-02-25T17:05:45.634Z,7.60
2019-02-25T17:08:19.046Z,8.43
2019-02-25T17:10:53.933Z,9.13
2019-02-25T17:13:23.491Z,8.88
2019-02-25T17:15:53.081Z,8.20
2019-02-25T17:18:23.831Z,8.60
2019-02-25T17:20:55.880Z,8.18
2019-02-25T17:23:30.207Z,7.50
2019-02-25T17:26:02.016Z,8.08
2019-02-25T17:28:33.506Z,7.87
2019-02-25T17:31:06.519Z,10.82
2019-02-25T17:33:42.796Z,13.15
2019-02-25T17:36:16.597Z,10.10
2019-02-25T17:38:50.147Z,14.50
2019-02-25T17:43:50.036Z,9.48
2019-02-25T17:46:19.098Z,8.08
2019-02-25T17:48:48.138Z,7.75
2019-02-25T17:51:20.866Z,6.75
2019-02-25T17:56:26.994Z,8.30
2019-02-25T17:58:55.772Z,12.07
2019-02-25T18:01:28.013Z,11.75
2019-02-25T18:03:56.735Z,9.40
2019-02-25T18:06:31.952Z,8.85
2019-02-25T18:09:04.577Z,8.73
2019-02-25T18:11:33.449Z,8.95
2019-02-25T18:14:05.274Z,9.50
2019-02-25T18:16:37.127Z,8.15
2019-02-25T18:19:09.200Z,8.65
2019-02-25T18:21:43.850Z,8.90
2019-02-25T18:24:13.858Z,8.38
2019-02-25T18:26:52.832Z,9.95
2019-02-25T18:29:25.177Z,10.40
2019-02-25T18:31:59.236Z,9.88
2019-02-25T18:34:32.197Z,12.00
2019-02-25T18:39:35.697Z,10.58
2019-02-25T18:42:11.617Z,18.55
2019-02-25T18:44:39.975Z,16.32
2019-02-25T18:47:16.527Z,12.25
2019-02-25T18:49:47.786Z,13.60
2019-02-25T18:52:19.591Z,14.90
2019-02-25T18:54:51.561Z,14.23
2019-02-25T18:57:21.036Z,14.03
2019-02-25T18:59:54.802Z,10.40
2019-02-25T19:02:26.448Z,8.95
2019-02-25T19:05:02.139Z,10.60
2019-02-25T19:07:37.714Z,11.57
2019-02-25T19:10:12.553Z,12.80
2019-02-25T19:12:43.901Z,27.30
2019-02-25T19:15:15.474Z,25.68
2019-02-25T19:17:45.843Z,19.50
2019-02-25T19:20:17.643Z,32.23
2019-02-25T19:22:46.518Z,37.20
2019-02-25T19:25:20.892Z,36.98
2019-02-25T19:27:52.697Z,22.82
2019-02-25T19:30:22.298Z,21.35
2019-02-25T19:32:53.447Z,24.87
2019-02-25T19:35:25.779Z,25.85
2019-02-25T19:37:56.090Z,18.90
2019-02-25T19:40:25.043Z,17.98
2019-02-25T19:43:00.523Z,16.37
2019-02-25T19:45:29.890Z,16.50
2019-02-25T19:48:02.469Z,17.65
2019-02-25T19:53:04.570Z,13.98
2019-02-25T19:55:33.968Z,13.95
2019-02-25T19:58:04.223Z,11.25
2019-02-25T20:00:35.351Z,11.60
2019-02-25T20:03:07.593Z,11.90
2019-02-25T20:05:41.658Z,12.82
2019-02-25T20:08:11.436Z,11.68
2019-02-25T20:10:42.398Z,12.35
2019-02-25T20:13:14.380Z,11.33
2019-02-25T20:15:44.403Z,11.33
2019-02-25T20:18:13.928Z,12.07
2019-02-25T20:20:45.773Z,10.68
2019-02-25T20:23:16.371Z,12.43
2019-02-25T20:25:47.068Z,12.23
2019-02-25T20:28:18.665Z,12.65
2019-02-25T20:30:48.964Z,12.43
2019-02-25T20:33:18.393Z,12.75
2019-02-25T20:35:51.167Z,12.40
2019-02-25T20:38:22.523Z,12.85
2019-02-25T20:40:51.579Z,12.33
2019-02-25T20:43:23.504Z,13.53
2019-02-25T20:45:54.643Z,12.28
2019-02-25T20:48:29.278Z,12.23
2019-02-25T20:50:59.825Z,12.05
2019-02-25T20:53:41.142Z,11.12
2019-02-25T20:56:09.868Z,13.83
2019-02-25T20:58:40.202Z,14.68
2019-02-25T21:01:16.101Z,14.83
2019-02-25T21:03:48.587Z,14.95
2019-02-25T21:06:22.830Z,14.38
2019-02-25T21:08:57.537Z,15.00
2019-02-25T21:11:26.612Z,14.73
2019-02-25T21:13:56.835Z,15.55
2019-02-25T21:16:30.575Z,17.35
2019-02-25T21:19:03.154Z,18.67
2019-02-25T21:21:34.647Z,17.05
2019-02-25T21:24:08.803Z,17.62
2019-02-25T21:29:10.319Z,16.57
2019-02-25T21:31:47.259Z,15.95
2019-02-25T21:34:20.535Z,17.42
2019-02-25T21:36:47.584Z,17.80
2019-02-25T21:39:19.122Z,16.87
2019-02-25T21:41:47.780Z,17.90
2019-02-25T21:44:23.566Z,16.67
2019-02-25T21:46:56.254Z,16.93
2019-02-25T21:49:27.160Z,17.95
2019-02-25T21:51:57.005Z,15.72
2019-02-25T21:54:27.846Z,14.20
2019-02-25T21:56:59.074Z,14.73
2019-02-25T21:59:32.237Z,13.25
2019-02-25T22:02:03.737Z,13.48
2019-02-25T22:04:38.488Z,14.68
2019-02-25T22:09:41.880Z,14.05
2019-02-25T22:12:11.301Z,14.15
2019-02-25T22:14:41.196Z,15.65
2019-02-25T22:17:15.130Z,15.58
2019-02-25T22:19:45.816Z,16.05
2019-02-25T22:22:24.128Z,14.00
2019-02-25T22:24:50.486Z,15.50
2019-02-25T22:27:21.206Z,19.05
2019-02-25T22:29:53.042Z,16.27
2019-02-25T22:32:21.744Z,13.85
2019-02-25T22:34:56.065Z,17.02
2019-02-25T22:37:29.174Z,14.33
2019-02-25T22:39:59.501Z,16.52
2019-02-25T22:42:33.413Z,14.63
2019-02-25T22:45:02.196Z,15.05
2019-02-25T22:47:30.742Z,13.60
2019-02-25T22:50:04.305Z,12.18
2019-02-25T22:52:37.290Z,12.33
2019-02-25T22:55:08.184Z,13.43
2019-02-25T22:57:41.058Z,13.95
2019-02-25T23:00:22.926Z,15.43
2019-02-25T23:02:56.825Z,15.85
2019-02-25T23:05:26.556Z,14.23
2019-02-25T23:07:55.518Z,13.38
2019-02-25T23:10:27.899Z,13.22
2019-02-25T23:12:58.118Z,14.75
2019-02-25T23:15:30.613Z,13.48
2019-02-25T23:18:05.275Z,15.88
2019-02-25T23:20:31.704Z,15.58
2019-02-25T23:23:04.855Z,15.45
2019-02-25T23:25:32.419Z,14.43
2019-02-25T23:28:02.305Z,14.95
2019-02-25T23:30:30.946Z,14.45
2019-02-25T23:33:02.070Z,15.63
2019-02-25T23:35:30.641Z,14.80
2019-02-25T23:38:03.817Z,12.58
2019-02-25T23:40:36.010Z,14.05
2019-02-25T23:43:07.478Z,14.10
2019-02-25T23:45:37.917Z,14.90
2019-02-25T23:48:08.955Z,14.28
2019-02-25T23:50:36.972Z,14.28
2019-02-25T23:53:12.289Z,12.75
2019-02-25T23:55:45.156Z,13.75
2019-02-25T23:58:19.613Z,13.93
